createdAt,value
2022-08-17T00:01:52.075Z,99.60
2022-08-17T00:04:24.902Z,99.60
2022-08-17T00:06:54.388Z,99.70
2022-08-17T00:09:23.871Z,99.90
2022-08-17T00:12:42.111Z,99.90
2022-08-17T00:14:42.910Z,99.90
2022-08-17T00:17:12.385Z,99.90
2022-08-17T00:19:43.480Z,99.90
2022-08-17T00:22:33.585Z,99.90
2022-08-17T00:25:02.527Z,99.90
2022-08-17T00:27:31.966Z,99.90
2022-08-17T00:30:01.593Z,99.90
2022-08-17T00:33:14.541Z,99.90
2022-08-17T00:35:25.289Z,99.90
2022-08-17T00:37:55.268Z,99.90
2022-08-17T00:40:24.968Z,99.90
2022-08-17T00:42:54.957Z,99.90
2022-08-17T00:45:24.561Z,99.90
2022-08-17T00:47:53.988Z,99.90
2022-08-17T00:50:27.175Z,99.90
2022-08-17T00:52:58.580Z,99.90
2022-08-17T00:55:29.266Z,99.90
2022-08-17T00:58:03.557Z,99.90
2022-08-17T01:00:37.726Z,99.90
2022-08-17T01:03:12.175Z,99.90
2022-08-17T01:05:44.571Z,99.90
2022-08-17T01:08:19.969Z,99.90
2022-08-17T01:10:57.273Z,99.90
2022-08-17T01:13:40.698Z,99.90
2022-08-17T01:16:17.647Z,99.90
2022-08-17T01:18:50.017Z,99.90
2022-08-17T01:21:29.053Z,99.90
2022-08-17T01:24:00.273Z,99.90
2022-08-17T01:26:31.501Z,99.90
2022-08-17T01:29:01.719Z,99.90
2022-08-17T01:31:36.356Z,99.90
2022-08-17T01:34:09.509Z,99.90
2022-08-17T01:36:39.757Z,99.90
2022-08-17T01:39:17.009Z,99.90
2022-08-17T01:41:48.344Z,99.90
2022-08-17T01:44:18.539Z,99.90
2022-08-17T01:46:48.129Z,99.90
2022-08-17T01:49:17.691Z,99.90
2022-08-17T01:51:47.476Z,99.90
2022-08-17T01:54:20.421Z,99.90
2022-08-17T01:56:53.212Z,99.90
2022-08-17T01:59:22.835Z,99.90
2022-08-17T02:01:53.405Z,99.90
2022-08-17T02:04:23.489Z,99.90
2022-08-17T02:06:54.600Z,99.90
2022-08-17T02:09:29.613Z,99.90
2022-08-17T02:12:37.793Z,99.90
2022-08-17T02:14:53.824Z,99.90
2022-08-17T02:17:23.242Z,99.90
2022-08-17T02:19:52.738Z,99.90
2022-08-17T02:22:22.407Z,99.90
2022-08-17T02:24:58.256Z,99.90
2022-08-17T02:27:30.989Z,99.90
2022-08-17T02:30:00.369Z,99.90
2022-08-17T02:32:29.848Z,99.90
2022-08-17T02:34:59.407Z,99.90
2022-08-17T02:37:30.163Z,99.90
2022-08-17T02:40:01.589Z,99.90
2022-08-17T02:42:34.227Z,99.90
2022-08-17T02:45:04.100Z,99.90
2022-08-17T02:47:34.022Z,99.90
2022-08-17T02:50:03.539Z,99.90
2022-08-17T02:52:42.864Z,99.90
2022-08-17T02:55:29.500Z,99.90
2022-08-17T02:57:59.126Z,99.90
2022-08-17T03:00:31.066Z,99.90
2022-08-17T03:03:00.710Z,99.90
2022-08-17T03:05:32.038Z,99.90
2022-08-17T03:08:01.592Z,99.90
2022-08-17T03:10:32.949Z,99.90
2022-08-17T03:13:02.830Z,99.90
2022-08-17T03:15:35.070Z,99.90
2022-08-17T03:18:04.850Z,99.90
2022-08-17T03:20:36.557Z,99.90
2022-08-17T03:23:06.527Z,99.90
2022-08-17T03:25:43.406Z,99.90
2022-08-17T03:28:14.020Z,99.90
2022-08-17T03:30:43.458Z,99.90
2022-08-17T03:33:13.467Z,99.90
2022-08-17T03:35:43.678Z,99.90
2022-08-17T03:38:15.996Z,99.90
2022-08-17T03:40:56.388Z,99.90
2022-08-17T03:43:28.717Z,99.90
2022-08-17T03:46:34.619Z,99.90
2022-08-17T03:49:23.516Z,99.90
2022-08-17T03:52:10.059Z,99.90
2022-08-17T03:54:56.658Z,99.90
2022-08-17T03:57:27.947Z,99.90
2022-08-17T03:59:57.778Z,99.90
2022-08-17T04:02:30.040Z,99.90
2022-08-17T04:05:00.169Z,99.90
2022-08-17T04:07:31.728Z,99.90
2022-08-17T04:10:01.797Z,99.90
2022-08-17T04:12:46.011Z,99.90
2022-08-17T04:15:16.229Z,99.90
2022-08-17T04:17:46.177Z,99.90
2022-08-17T04:20:17.968Z,99.90
2022-08-17T04:22:58.871Z,99.90
2022-08-17T04:25:28.928Z,99.90
2022-08-17T04:28:00.097Z,99.90
2022-08-17T04:30:30.807Z,99.90
2022-08-17T04:33:07.276Z,99.90
2022-08-17T04:35:39.591Z,99.90
2022-08-17T04:38:09.880Z,99.90
2022-08-17T04:40:57.171Z,99.90
2022-08-17T04:43:29.528Z,99.90
2022-08-17T04:46:01.098Z,99.90
2022-08-17T04:48:37.252Z,99.90
2022-08-17T04:51:10.388Z,99.90
2022-08-17T04:53:41.077Z,99.90
2022-08-17T04:56:16.057Z,99.90
2022-08-17T04:58:50.393Z,99.90
2022-08-17T05:01:23.925Z,99.90
2022-08-17T05:03:54.452Z,99.90
2022-08-17T05:06:25.038Z,99.90
2022-08-17T05:08:56.108Z,99.90
2022-08-17T05:11:27.677Z,99.90
2022-08-17T05:13:59.968Z,99.90
2022-08-17T05:16:30.307Z,99.90
2022-08-17T05:19:01.067Z,99.90
2022-08-17T05:21:31.568Z,99.90
2022-08-17T05:24:01.094Z,99.90
2022-08-17T05:26:46.452Z,99.90
2022-08-17T05:29:19.633Z,99.90
2022-08-17T05:31:49.125Z,99.90
2022-08-17T05:34:18.532Z,99.90
2022-08-17T05:36:48.223Z,99.90
2022-08-17T05:39:17.835Z,99.90
2022-08-17T05:41:49.172Z,99.90
2022-08-17T05:44:20.363Z,99.90
2022-08-17T05:46:52.471Z,99.90
2022-08-17T05:49:28.763Z,99.90
2022-08-17T05:52:21.011Z,99.90
2022-08-17T05:55:04.454Z,99.90
2022-08-17T05:57:53.179Z,99.90
2022-08-17T06:00:30.720Z,99.90
2022-08-17T06:03:34.812Z,99.90
2022-08-17T06:06:18.759Z,99.90
2022-08-17T06:08:54.940Z,99.90
2022-08-17T06:11:33.191Z,99.90
2022-08-17T06:14:33.189Z,99.90
2022-08-17T06:17:06.620Z,99.90
2022-08-17T06:19:41.230Z,99.90
2022-08-17T06:22:14.680Z,99.90
2022-08-17T06:24:48.510Z,99.90
2022-08-17T06:27:25.280Z,99.90
2022-08-17T06:30:01.668Z,99.90
2022-08-17T06:32:32.828Z,99.90
2022-08-17T06:35:04.829Z,99.90
2022-08-17T06:37:57.679Z,99.90
2022-08-17T06:40:51.441Z,99.90
2022-08-17T06:43:35.529Z,99.90
2022-08-17T06:46:11.730Z,99.90
2022-08-17T06:48:48.865Z,99.90
2022-08-17T06:51:26.193Z,99.90
2022-08-17T06:54:06.915Z,99.90
2022-08-17T06:56:54.846Z,99.90
2022-08-17T06:59:54.171Z,99.90
2022-08-17T07:02:29.126Z,99.90
2022-08-17T07:05:18.807Z,99.90
2022-08-17T07:08:05.407Z,99.90
2022-08-17T07:10:41.859Z,99.90
2022-08-17T07:13:29.775Z,99.90
2022-08-17T07:16:09.479Z,99.90
2022-08-17T07:18:39.049Z,99.90
2022-08-17T07:21:34.285Z,99.90
2022-08-17T07:24:29.328Z,99.90
2022-08-17T07:27:15.768Z,99.90
2022-08-17T07:29:51.826Z,99.90
2022-08-17T07:32:25.938Z,99.90
2022-08-17T07:35:16.449Z,99.90
2022-08-17T07:37:53.463Z,99.90
2022-08-17T07:40:27.655Z,99.90
2022-08-17T07:43:23.576Z,99.90
2022-08-17T07:46:18.160Z,99.90
2022-08-17T07:48:51.356Z,99.90
2022-08-17T07:51:26.827Z,99.90
2022-08-17T07:54:13.647Z,99.90
2022-08-17T07:56:47.566Z,99.90
2022-08-17T07:59:23.207Z,99.90
2022-08-17T08:02:08.360Z,99.90
2022-08-17T08:04:59.839Z,99.90
2022-08-17T08:07:34.972Z,99.90
2022-08-17T08:10:12.489Z,99.90
2022-08-17T08:12:44.487Z,99.90
2022-08-17T08:15:19.269Z,99.90
2022-08-17T08:17:52.732Z,99.90
2022-08-17T08:20:51.214Z,99.90
2022-08-17T08:23:33.793Z,99.90
2022-08-17T08:26:18.794Z,99.90
2022-08-17T08:29:01.787Z,99.90
2022-08-17T08:31:44.835Z,99.90
2022-08-17T08:35:00.722Z,99.90
2022-08-17T08:37:32.280Z,99.90
2022-08-17T08:40:12.794Z,99.90
2022-08-17T08:42:52.700Z,99.90
2022-08-17T08:45:26.580Z,99.90
2022-08-17T08:48:45.898Z,99.90
2022-08-17T08:51:08.835Z,99.90
2022-08-17T08:53:51.063Z,99.60
2022-08-17T08:56:29.061Z,99.50
2022-08-17T08:59:09.912Z,99.40
2022-08-17T09:01:52.618Z,99.90
2022-08-17T09:05:10.323Z,99.60
2022-08-17T09:07:42.994Z,98.80
2022-08-17T09:10:19.988Z,99.20
2022-08-17T09:12:59.366Z,97.90
2022-08-17T09:15:36.307Z,98.90
2022-08-17T09:21:05.424Z,99.40
2022-08-17T09:23:39.273Z,99.30
2022-08-17T09:26:23.313Z,99.70
2022-08-17T09:28:54.977Z,99.90
2022-08-17T09:31:47.002Z,99.40
2022-08-17T09:34:28.197Z,99.40
2022-08-17T09:37:17.996Z,99.50
2022-08-17T09:39:56.669Z,98.40
2022-08-17T09:42:31.794Z,97.10
2022-08-17T09:45:17.920Z,97.90
2022-08-17T09:47:57.634Z,97.10
2022-08-17T09:51:01.597Z,96.40
2022-08-17T09:53:25.530Z,96.60
2022-08-17T09:56:06.652Z,97.40
2022-08-17T09:58:48.070Z,97.10
2022-08-17T10:01:29.470Z,97.60
2022-08-17T10:04:22.854Z,97.90
2022-08-17T10:07:02.119Z,95.90
2022-08-17T10:09:44.477Z,96.20
2022-08-17T10:12:29.933Z,97.60
2022-08-17T10:15:14.713Z,97.70
2022-08-17T10:17:56.827Z,96.80
2022-08-17T10:20:31.923Z,96.70
2022-08-17T10:23:39.193Z,97.20
2022-08-17T10:26:15.794Z,95.50
2022-08-17T10:28:51.417Z,97.10
2022-08-17T10:31:36.232Z,95.90
2022-08-17T10:34:44.599Z,96.50
2022-08-17T10:37:41.917Z,96.10
2022-08-17T10:40:32.794Z,95.00
2022-08-17T10:43:13.797Z,95.50
2022-08-17T10:46:10.350Z,95.00
2022-08-17T10:48:42.957Z,95.40
2022-08-17T10:51:14.779Z,95.20
2022-08-17T10:53:57.698Z,96.00
2022-08-17T10:56:50.697Z,93.80
2022-08-17T10:59:52.105Z,93.00
2022-08-17T11:02:31.906Z,92.00
2022-08-17T11:05:20.919Z,93.50
2022-08-17T11:08:18.996Z,90.80
2022-08-17T11:11:00.486Z,88.80
2022-08-17T11:13:40.440Z,86.10
2022-08-17T11:16:25.978Z,85.70
2022-08-17T11:19:28.067Z,86.70
2022-08-17T11:22:21.768Z,84.50
2022-08-17T11:24:54.239Z,84.30
2022-08-17T11:27:30.584Z,82.80
2022-08-17T11:30:03.127Z,83.40
2022-08-17T11:32:47.193Z,81.60
2022-08-17T11:35:38.982Z,81.40
2022-08-17T11:38:18.424Z,81.10
2022-08-17T11:41:11.738Z,81.80
2022-08-17T11:44:12.221Z,80.50
2022-08-17T11:47:16.118Z,82.80
2022-08-17T11:50:31.429Z,82.60
2022-08-17T11:53:01.097Z,81.40
2022-08-17T11:56:05.055Z,79.30
2022-08-17T11:58:39.323Z,79.60
2022-08-17T12:01:13.564Z,81.60
2022-08-17T12:03:55.683Z,81.50
2022-08-17T12:06:46.757Z,81.60
2022-08-17T12:09:21.245Z,81.90
2022-08-17T12:12:12.818Z,81.60
2022-08-17T12:15:09.535Z,79.30
2022-08-17T12:17:42.823Z,81.20
2022-08-17T12:20:21.736Z,81.40
2022-08-17T12:22:57.928Z,79.40
2022-08-17T12:25:34.524Z,80.30
2022-08-17T12:28:07.211Z,79.50
2022-08-17T12:30:38.273Z,81.10
2022-08-17T12:33:25.299Z,79.90
2022-08-17T12:36:03.552Z,82.20
2022-08-17T12:38:36.414Z,83.60
2022-08-17T12:41:21.518Z,84.10
2022-08-17T12:44:02.637Z,86.50
2022-08-17T12:46:36.225Z,82.50
2022-08-17T12:49:28.386Z,83.30
2022-08-17T12:52:04.962Z,84.80
2022-08-17T12:54:52.839Z,84.20
2022-08-17T12:57:27.085Z,86.00
2022-08-17T13:00:00.530Z,86.60
2022-08-17T13:02:41.969Z,82.20
2022-08-17T13:05:24.517Z,80.10
2022-08-17T13:07:54.919Z,79.80
2022-08-17T13:10:32.534Z,80.40
2022-08-17T13:13:05.726Z,76.30
2022-08-17T13:15:44.760Z,80.50
2022-08-17T13:18:43.489Z,80.30
2022-08-17T13:21:28.499Z,78.30
2022-08-17T13:24:04.010Z,80.00
2022-08-17T13:26:37.039Z,78.10
2022-08-17T13:29:09.290Z,78.90
2022-08-17T13:31:51.893Z,82.00
2022-08-17T13:35:12.198Z,84.40
2022-08-17T13:37:34.166Z,83.20
2022-08-17T13:40:21.466Z,77.10
2022-08-17T13:42:53.976Z,77.90
2022-08-17T13:45:50.235Z,77.90
2022-08-17T13:48:29.747Z,81.50
2022-08-17T13:51:14.712Z,82.50
2022-08-17T13:53:59.716Z,83.30
2022-08-17T13:56:41.369Z,84.50
2022-08-17T13:59:14.249Z,84.70
2022-08-17T14:01:51.070Z,82.90
2022-08-17T14:04:26.182Z,82.20
2022-08-17T14:07:01.058Z,81.50
2022-08-17T14:09:37.459Z,85.00
2022-08-17T14:12:11.259Z,89.60
2022-08-17T14:14:41.152Z,90.20
2022-08-17T14:17:10.964Z,91.40
2022-08-17T14:19:40.795Z,91.70
2022-08-17T14:22:16.667Z,92.30
2022-08-17T14:24:47.758Z,93.00
2022-08-17T14:27:18.357Z,92.80
2022-08-17T14:29:48.275Z,92.60
2022-08-17T14:32:21.504Z,92.80
2022-08-17T14:34:51.114Z,91.80
2022-08-17T14:37:21.043Z,91.20
2022-08-17T14:39:52.127Z,90.10
2022-08-17T14:42:24.964Z,89.00
2022-08-17T14:44:54.838Z,89.80
2022-08-17T14:47:24.725Z,90.00
2022-08-17T14:49:54.896Z,90.00
2022-08-17T14:52:24.467Z,90.40
2022-08-17T14:54:55.529Z,91.40
2022-08-17T14:57:33.463Z,92.30
2022-08-17T15:00:06.379Z,93.20
2022-08-17T15:02:47.248Z,93.60
2022-08-17T15:05:18.200Z,93.50
2022-08-17T15:07:47.767Z,92.80
2022-08-17T15:10:19.157Z,93.60
2022-08-17T15:12:48.689Z,93.70
2022-08-17T15:19:34.977Z,95.00
2022-08-17T15:22:04.550Z,95.50
2022-08-17T15:24:34.188Z,95.80
2022-08-17T15:27:05.298Z,95.90
2022-08-17T15:29:34.767Z,96.10
2022-08-17T15:32:04.274Z,96.30
2022-08-17T15:34:33.867Z,96.50
2022-08-17T15:37:03.427Z,96.80
2022-08-17T15:39:32.965Z,96.40
2022-08-17T15:42:06.707Z,95.40
2022-08-17T15:44:41.218Z,95.60
2022-08-17T15:47:11.149Z,95.50
2022-08-17T15:49:42.292Z,94.90
2022-08-17T15:52:18.760Z,94.80
2022-08-17T15:54:52.700Z,95.00
2022-08-17T15:57:24.531Z,95.00
2022-08-17T15:59:58.576Z,95.20
2022-08-17T16:03:46.438Z,94.20
2022-08-17T16:05:24.183Z,93.50
2022-08-17T16:07:54.599Z,91.80
2022-08-17T16:10:25.194Z,90.90
2022-08-17T16:13:17.915Z,90.50
2022-08-17T16:15:56.594Z,90.70
2022-08-17T16:18:31.317Z,90.40
2022-08-17T16:21:23.095Z,90.40
2022-08-17T16:23:56.557Z,90.80
2022-08-17T16:26:26.575Z,91.00
2022-08-17T16:28:58.554Z,91.20
2022-08-17T16:31:28.331Z,92.00
2022-08-17T16:34:16.753Z,91.60
2022-08-17T16:36:55.762Z,92.00
2022-08-17T16:39:27.775Z,92.30
2022-08-17T16:41:58.175Z,92.40
2022-08-17T16:44:32.206Z,92.70
2022-08-17T16:47:02.626Z,92.90
2022-08-17T16:49:36.832Z,93.40
2022-08-17T16:52:11.430Z,93.90
2022-08-17T16:54:44.240Z,94.20
2022-08-17T16:57:15.814Z,94.60
2022-08-17T16:59:51.809Z,94.70
2022-08-17T17:02:29.088Z,94.80
2022-08-17T17:05:04.819Z,94.80
2022-08-17T17:07:49.927Z,95.10
2022-08-17T17:10:22.096Z,95.60
2022-08-17T17:13:02.606Z,95.90
2022-08-17T17:15:55.983Z,96.20
2022-08-17T17:18:39.021Z,96.60
2022-08-17T17:21:14.554Z,96.90
2022-08-17T17:23:53.515Z,97.00
2022-08-17T17:26:48.787Z,96.90
2022-08-17T17:29:47.219Z,96.90
2022-08-17T17:32:27.227Z,96.90
2022-08-17T17:35:05.438Z,97.10
2022-08-17T17:37:36.979Z,96.90
2022-08-17T17:42:43.052Z,97.10
2022-08-17T17:45:18.458Z,97.10
2022-08-17T17:47:48.370Z,97.10
2022-08-17T17:50:20.249Z,97.50
2022-08-17T17:53:02.525Z,97.60
2022-08-17T17:55:40.858Z,97.70
2022-08-17T17:58:29.998Z,97.90
2022-08-17T18:01:12.348Z,98.10
2022-08-17T18:03:59.308Z,98.00
2022-08-17T18:06:40.115Z,98.20
2022-08-17T18:09:21.692Z,98.30
2022-08-17T18:12:06.292Z,98.60
2022-08-17T18:14:53.298Z,98.90
2022-08-17T18:17:22.846Z,98.70
2022-08-17T18:19:52.280Z,99.00
2022-08-17T18:22:23.260Z,99.10
2022-08-17T18:24:56.753Z,99.50
2022-08-17T18:27:38.552Z,99.50
2022-08-17T18:30:30.119Z,99.90
2022-08-17T18:33:22.988Z,99.90
2022-08-17T18:35:59.271Z,99.90
2022-08-17T18:38:33.962Z,99.90
2022-08-17T18:41:08.494Z,99.90
2022-08-17T18:43:53.103Z,99.90
2022-08-17T18:46:30.342Z,99.90
2022-08-17T18:49:03.221Z,99.90
2022-08-17T18:51:41.397Z,99.90
2022-08-17T18:54:19.703Z,99.90
2022-08-17T18:56:55.425Z,99.90
2022-08-17T18:59:31.545Z,99.90
2022-08-17T19:02:15.484Z,99.90
2022-08-17T19:05:13.684Z,99.90
2022-08-17T19:07:45.688Z,99.90
2022-08-17T19:10:24.836Z,99.90
2022-08-17T19:13:00.399Z,99.90
2022-08-17T19:15:36.222Z,99.90
2022-08-17T19:18:15.721Z,99.90
2022-08-17T19:20:49.836Z,99.90
2022-08-17T19:23:26.064Z,99.90
2022-08-17T19:25:58.787Z,99.90
2022-08-17T19:28:31.303Z,99.90
2022-08-17T19:31:06.123Z,99.90
2022-08-17T19:33:37.813Z,99.90
2022-08-17T19:36:11.683Z,99.90
2022-08-17T19:38:53.296Z,99.90
2022-08-17T19:41:28.609Z,99.90
2022-08-17T19:44:19.228Z,99.90
2022-08-17T19:46:56.311Z,99.90
2022-08-17T19:49:46.966Z,99.90
2022-08-17T19:52:33.017Z,99.90
2022-08-17T19:55:08.730Z,99.90
2022-08-17T19:57:51.043Z,99.90
2022-08-17T20:00:21.221Z,99.90
2022-08-17T20:02:56.591Z,99.90
2022-08-17T20:05:40.628Z,99.90
2022-08-17T20:08:25.737Z,99.90
2022-08-17T20:10:59.689Z,99.90
2022-08-17T20:13:34.133Z,99.90
2022-08-17T20:16:05.629Z,99.90
2022-08-17T20:18:43.988Z,99.90
2022-08-17T20:21:23.661Z,99.90
2022-08-17T20:24:01.363Z,99.90
2022-08-17T20:26:49.151Z,99.90
2022-08-17T20:29:39.760Z,99.90
2022-08-17T20:32:25.525Z,99.90
2022-08-17T20:35:20.225Z,99.90
2022-08-17T20:38:02.479Z,99.90
2022-08-17T20:40:38.815Z,99.90
2022-08-17T20:43:54.216Z,99.90
2022-08-17T20:46:43.505Z,99.90
2022-08-17T20:49:25.250Z,99.90
2022-08-17T20:52:01.817Z,99.90
2022-08-17T20:54:51.629Z,99.90
2022-08-17T20:57:49.192Z,99.90
2022-08-17T21:00:44.995Z,99.90
2022-08-17T21:03:51.062Z,99.90
2022-08-17T21:06:28.085Z,99.90
2022-08-17T21:09:00.547Z,99.90
2022-08-17T21:12:04.480Z,99.90
2022-08-17T21:14:58.945Z,99.90
2022-08-17T21:17:46.835Z,99.90
2022-08-17T21:20:32.812Z,99.90
2022-08-17T21:23:28.826Z,99.90
2022-08-17T21:26:21.168Z,99.90
2022-08-17T21:29:31.211Z,99.90
2022-08-17T21:32:24.266Z,99.90
2022-08-17T21:35:24.203Z,99.90
2022-08-17T21:37:57.297Z,99.90
2022-08-17T21:40:29.367Z,99.90
2022-08-17T21:43:02.210Z,99.90
2022-08-17T21:45:36.278Z,99.90
2022-08-17T21:48:14.273Z,99.90
2022-08-17T21:50:46.078Z,99.90
2022-08-17T21:53:28.083Z,99.90
2022-08-17T21:56:00.296Z,99.90
2022-08-17T21:58:32.842Z,99.90
2022-08-17T22:01:24.287Z,99.90
2022-08-17T22:04:03.636Z,99.90
2022-08-17T22:06:38.595Z,99.90
2022-08-17T22:09:19.037Z,99.90
2022-08-17T22:11:54.730Z,99.90
2022-08-17T22:14:26.751Z,99.90
2022-08-17T22:17:21.270Z,99.90
2022-08-17T22:19:53.969Z,99.90
2022-08-17T22:22:31.111Z,99.90
2022-08-17T22:25:02.889Z,99.90
2022-08-17T22:27:54.596Z,99.90
2022-08-17T22:30:39.801Z,99.90
2022-08-17T22:33:37.848Z,99.90
2022-08-17T22:36:26.438Z,99.90
2022-08-17T22:39:00.284Z,99.90
2022-08-17T22:41:37.447Z,99.90
2022-08-17T22:44:17.513Z,99.90
2022-08-17T22:47:07.050Z,99.90
2022-08-17T22:49:54.255Z,99.90
2022-08-17T22:52:33.088Z,99.90
2022-08-17T22:55:26.218Z,99.90
2022-08-17T22:58:13.120Z,99.90
2022-08-17T23:00:45.944Z,99.90
2022-08-17T23:03:19.311Z,99.90
2022-08-17T23:06:05.178Z,99.90
2022-08-17T23:08:36.453Z,99.90
2022-08-17T23:11:07.895Z,99.90
2022-08-17T23:13:39.053Z,99.90
2022-08-17T23:16:08.608Z,99.90
2022-08-17T23:18:38.140Z,99.90
2022-08-17T23:21:09.288Z,99.90
2022-08-17T23:23:43.003Z,99.90
2022-08-17T23:26:13.785Z,99.90
2022-08-17T23:28:44.009Z,99.90
2022-08-17T23:31:14.570Z,99.90
2022-08-17T23:33:44.586Z,99.90
2022-08-17T23:36:17.263Z,99.90
2022-08-17T23:38:47.225Z,99.90
2022-08-17T23:41:19.090Z,99.90
2022-08-17T23:43:51.420Z,99.90
2022-08-17T23:46:24.895Z,99.90
2022-08-17T23:48:55.015Z,99.90
2022-08-17T23:51:28.308Z,99.90
2022-08-17T23:54:04.324Z,99.90
2022-08-17T23:56:42.276Z,99.90
2022-08-17T23:59:13.204Z,99.90
